createdAt,value
2018-01-23T00:00:57.574Z,100403.48
2018-01-23T00:02:04.273Z,100406.52
2018-01-23T00:03:10.396Z,100403.86
2018-01-23T00:04:16.622Z,100412.84
2018-01-23T00:05:22.812Z,100413.28
2018-01-23T00:06:29.025Z,100421.44
2018-01-23T00:07:35.229Z,100413.16
2018-01-23T00:08:41.959Z,100417.48
2018-01-23T00:09:48.148Z,100420.47
2018-01-23T00:10:54.279Z,100421.39
2018-01-23T00:12:00.486Z,100424.42
2018-01-23T00:13:06.652Z,100434.41
2018-01-23T00:14:13.141Z,100436.53
2018-01-23T00:15:21.368Z,100437.02
2018-01-23T00:16:27.889Z,100439.56
2018-01-23T00:17:39.012Z,100436.63
2018-01-23T00:18:45.209Z,100435.71
2018-01-23T00:19:52.488Z,100439.08
2018-01-23T00:20:58.617Z,100438.20
2018-01-23T00:22:07.817Z,100433.22
2018-01-23T00:23:15.684Z,100435.40
2018-01-23T00:24:22.968Z,100435.33
2018-01-23T00:25:29.641Z,100444.31
2018-01-23T00:26:36.841Z,100450.77
2018-01-23T00:27:43.049Z,100449.09
2018-01-23T00:28:49.193Z,100450.86
2018-01-23T00:29:55.385Z,100459.08
2018-01-23T00:31:01.686Z,100458.22
2018-01-23T00:32:07.849Z,100459.95
2018-01-23T00:33:14.103Z,100460.43
2018-01-23T00:34:21.230Z,100463.84
2018-01-23T00:35:27.424Z,100466.44
2018-01-23T00:36:33.648Z,100463.84
2018-01-23T00:37:39.858Z,100465.09
2018-01-23T00:38:45.992Z,100467.25
2018-01-23T00:39:51.790Z,100466.83
2018-01-23T00:40:58.025Z,100474.61
2018-01-23T00:42:04.206Z,100478.84
2018-01-23T00:43:10.365Z,100472.78
2018-01-23T00:44:20.474Z,100475.86
2018-01-23T00:45:26.666Z,100479.75
2018-01-23T00:46:34.058Z,100482.35
2018-01-23T00:47:40.192Z,100477.16
2018-01-23T00:48:52.898Z,100481.96
2018-01-23T00:49:59.082Z,100476.81
2018-01-23T00:51:05.563Z,100481.97
2018-01-23T00:52:13.577Z,100481.09
2018-01-23T00:53:20.070Z,100488.50
2018-01-23T00:54:25.861Z,100487.25
2018-01-23T00:55:32.612Z,100487.20
2018-01-23T00:56:38.812Z,100486.30
2018-01-23T00:57:44.960Z,100488.94
2018-01-23T00:58:51.180Z,100493.66
2018-01-23T00:59:57.374Z,100497.92
2018-01-23T01:01:03.571Z,100492.73
2018-01-23T01:02:09.846Z,100492.30
2018-01-23T01:03:16.026Z,100495.70
2018-01-23T01:04:22.515Z,100504.36
2018-01-23T01:05:28.763Z,100502.20
2018-01-23T01:06:34.938Z,100507.49
2018-01-23T01:07:41.132Z,100507.41
2018-01-23T01:08:47.266Z,100513.02
2018-01-23T01:09:53.493Z,100516.87
2018-01-23T01:11:03.541Z,100519.90
2018-01-23T01:12:09.738Z,100521.67
2018-01-23T01:13:15.884Z,100525.62
2018-01-23T01:14:22.060Z,100523.41
2018-01-23T01:15:27.947Z,100526.83
2018-01-23T01:16:34.149Z,100524.70
2018-01-23T01:17:40.614Z,100522.11
2018-01-23T01:18:46.876Z,100524.76
2018-01-23T01:19:53.089Z,100532.92
2018-01-23T01:20:59.343Z,100541.10
2018-01-23T01:22:06.856Z,100539.90
2018-01-23T01:23:13.061Z,100539.03
2018-01-23T01:24:19.269Z,100539.95
2018-01-23T01:25:25.428Z,100537.40
2018-01-23T01:26:31.645Z,100541.59
2018-01-23T01:27:37.796Z,100548.07
2018-01-23T01:28:44.965Z,100541.91
2018-01-23T01:29:51.141Z,100544.46
2018-01-23T01:30:57.353Z,100547.05
2018-01-23T01:32:04.565Z,100545.22
2018-01-23T01:33:10.813Z,100561.25
2018-01-23T01:34:16.980Z,100558.22
2018-01-23T01:35:23.196Z,100556.48
2018-01-23T01:36:29.368Z,100555.17
2018-01-23T01:37:35.527Z,100559.50
2018-01-23T01:38:41.674Z,100561.63
2018-01-23T01:39:48.799Z,100562.53
2018-01-23T01:40:54.984Z,100565.51
2018-01-23T01:42:00.864Z,100566.81
2018-01-23T01:43:07.142Z,100568.55
2018-01-23T01:44:13.321Z,100569.85
2018-01-23T01:45:19.476Z,100571.53
2018-01-23T01:46:26.390Z,100579.22
2018-01-23T01:47:33.004Z,100580.56
2018-01-23T01:48:50.294Z,100584.95
2018-01-23T01:49:56.472Z,100591.50
2018-01-23T01:51:02.651Z,100592.46
2018-01-23T01:52:08.837Z,100589.81
2018-01-23T01:53:15.001Z,100587.22
2018-01-23T01:54:22.895Z,100585.87
2018-01-23T01:55:29.272Z,100588.08
2018-01-23T01:56:35.401Z,100596.39
2018-01-23T01:57:41.646Z,100587.66
2018-01-23T01:58:47.809Z,100587.22
2018-01-23T01:59:54.035Z,100592.89
2018-01-23T02:01:00.406Z,100595.06
2018-01-23T02:02:07.158Z,100587.26
2018-01-23T02:03:13.349Z,100586.44
2018-01-23T02:04:19.500Z,100587.22
2018-01-23T02:05:25.801Z,100585.47
2018-01-23T02:06:31.939Z,100580.28
2018-01-23T02:07:38.096Z,100576.39
2018-01-23T02:08:44.231Z,100580.77
2018-01-23T02:09:50.419Z,100588.08
2018-01-23T02:10:56.615Z,100587.64
2018-01-23T02:12:03.277Z,100585.05
2018-01-23T02:13:09.515Z,100589.39
2018-01-23T02:14:15.445Z,100584.19
2018-01-23T02:15:21.381Z,100584.17
2018-01-23T02:16:27.671Z,100590.20
2018-01-23T02:17:33.791Z,100587.65
2018-01-23T02:18:39.980Z,100592.45
2018-01-23T02:19:46.128Z,100596.45
2018-01-23T02:20:52.337Z,100589.05
2018-01-23T02:21:58.505Z,100588.52
2018-01-23T02:23:04.652Z,100588.45
2018-01-23T02:24:10.803Z,100596.59
2018-01-23T02:25:17.057Z,100606.16
2018-01-23T02:26:23.311Z,100607.47
2018-01-23T02:27:29.515Z,100610.97
2018-01-23T02:28:35.619Z,100608.28
2018-01-23T02:29:41.832Z,100603.95
2018-01-23T02:30:48.009Z,100616.93
2018-01-23T02:31:54.154Z,100618.66
2018-01-23T02:33:00.363Z,100621.31
2018-01-23T02:34:06.552Z,100627.33
2018-01-23T02:35:13.008Z,100627.33
2018-01-23T02:36:19.209Z,100635.12
2018-01-23T02:37:25.344Z,100633.87
2018-01-23T02:38:31.503Z,100638.58
2018-01-23T02:39:37.383Z,100638.16
2018-01-23T02:40:43.335Z,100645.51
2018-01-23T02:41:50.717Z,100639.84
2018-01-23T02:42:56.885Z,100647.67
2018-01-23T02:44:03.107Z,100648.16
2018-01-23T02:45:09.295Z,100648.16
2018-01-23T02:46:15.407Z,100645.98
2018-01-23T02:47:21.584Z,100651.19
2018-01-23T02:48:28.073Z,100650.86
2018-01-23T02:49:34.494Z,100654.37
2018-01-23T02:50:40.677Z,100653.50
2018-01-23T02:51:47.417Z,100656.91
2018-01-23T02:52:53.293Z,100664.70
2018-01-23T02:53:59.458Z,100667.16
2018-01-23T02:55:05.590Z,100672.02
2018-01-23T02:56:14.785Z,100673.27
2018-01-23T02:57:21.026Z,100674.56
2018-01-23T02:58:27.176Z,100679.29
2018-01-23T02:59:33.384Z,100677.13
2018-01-23T03:00:39.516Z,100688.86
2018-01-23T03:01:45.481Z,100683.23
2018-01-23T03:02:51.655Z,100680.67
2018-01-23T03:03:57.885Z,100692.42
2018-01-23T03:05:03.755Z,100686.87
2018-01-23T03:06:09.888Z,100686.83
2018-01-23T03:07:16.049Z,100685.96
2018-01-23T03:08:23.015Z,100681.16
2018-01-23T03:09:32.991Z,100686.34
2018-01-23T03:10:39.259Z,100684.19
2018-01-23T03:11:45.477Z,100678.09
2018-01-23T03:12:51.624Z,100679.00
2018-01-23T03:13:57.773Z,100676.39
2018-01-23T03:15:03.572Z,100682.02
2018-01-23T03:16:09.793Z,100690.24
2018-01-23T03:17:15.940Z,100688.91
2018-01-23T03:18:22.096Z,100686.78
2018-01-23T03:19:28.236Z,100691.89
2018-01-23T03:20:34.453Z,100695.34
2018-01-23T03:21:40.657Z,100692.36
2018-01-23T03:22:46.811Z,100685.88
2018-01-23T03:23:53.336Z,100693.62
2018-01-23T03:24:59.505Z,100695.30
2018-01-23T03:26:05.408Z,100689.11
2018-01-23T03:27:11.587Z,100691.70
2018-01-23T03:28:17.767Z,100690.79
2018-01-23T03:29:23.939Z,100691.70
2018-01-23T03:30:30.140Z,100697.38
2018-01-23T03:31:38.091Z,100694.87
2018-01-23T03:32:44.302Z,100697.52
2018-01-23T03:33:50.536Z,100697.86
2018-01-23T03:34:56.745Z,100694.87
2018-01-23T03:36:02.964Z,100698.24
2018-01-23T03:37:09.119Z,100693.48
2018-01-23T03:38:15.567Z,100694.35
2018-01-23T03:39:21.804Z,100699.50
2018-01-23T03:40:28.152Z,100698.24
2018-01-23T03:41:34.336Z,100704.36
2018-01-23T03:42:40.466Z,100702.62
2018-01-23T03:43:46.710Z,100704.84
2018-01-23T03:44:52.950Z,100708.30
2018-01-23T03:45:59.110Z,100711.76
2018-01-23T03:47:06.221Z,100708.69
2018-01-23T03:48:12.383Z,100713.05
2018-01-23T03:49:18.576Z,100711.23
2018-01-23T03:50:24.970Z,100713.73
2018-01-23T03:51:31.105Z,100720.67
2018-01-23T03:52:37.390Z,100720.29
2018-01-23T03:53:43.575Z,100720.67
2018-01-23T03:54:49.788Z,100721.59
2018-01-23T03:55:55.948Z,100721.59
2018-01-23T03:57:02.129Z,100726.78
2018-01-23T03:58:08.373Z,100728.46
2018-01-23T03:59:14.575Z,100727.56
2018-01-23T04:00:20.789Z,100733.62
2018-01-23T04:01:27.009Z,100735.74
2018-01-23T04:02:32.896Z,100735.30
2018-01-23T04:03:39.105Z,100744.41
2018-01-23T04:04:45.376Z,100738.43
2018-01-23T04:05:51.592Z,100739.25
2018-01-23T04:06:57.788Z,100743.09
2018-01-23T04:08:04.080Z,100740.47
2018-01-23T04:09:10.311Z,100744.45
2018-01-23T04:10:16.540Z,100740.59
2018-01-23T04:11:22.737Z,100745.31
2018-01-23T04:12:28.965Z,100746.22
2018-01-23T04:13:35.128Z,100746.83
2018-01-23T04:14:41.291Z,100748.04
2018-01-23T04:15:47.455Z,100748.09
2018-01-23T04:16:53.672Z,100754.58
2018-01-23T04:17:59.907Z,100758.45
2018-01-23T04:19:06.062Z,100759.74
2018-01-23T04:20:13.198Z,100764.94
2018-01-23T04:21:19.350Z,100759.70
2018-01-23T04:22:26.580Z,100765.76
2018-01-23T04:23:32.740Z,100764.41
2018-01-23T04:24:38.978Z,100765.28
2018-01-23T04:25:45.169Z,100764.38
2018-01-23T04:26:51.348Z,100759.56
2018-01-23T04:27:57.528Z,100767.10
2018-01-23T04:29:03.661Z,100765.37
2018-01-23T04:30:09.894Z,100767.92
2018-01-23T04:31:16.081Z,100771.81
2018-01-23T04:32:22.271Z,100771.43
2018-01-23T04:33:28.379Z,100778.84
2018-01-23T04:34:34.490Z,100773.24
2018-01-23T04:35:40.693Z,100777.93
2018-01-23T04:36:47.171Z,100779.61
2018-01-23T04:37:53.692Z,100778.79
2018-01-23T04:39:00.726Z,100784.89
2018-01-23T04:40:06.953Z,100786.67
2018-01-23T04:41:13.094Z,100797.02
2018-01-23T04:42:19.528Z,100792.66
2018-01-23T04:43:25.683Z,100800.05
2018-01-23T04:44:31.804Z,100800.48
2018-01-23T04:45:37.931Z,100803.52
2018-01-23T04:46:44.067Z,100801.04
2018-01-23T04:47:50.264Z,100807.09
2018-01-23T04:48:56.400Z,100811.34
2018-01-23T04:50:02.570Z,100807.81
2018-01-23T04:51:09.093Z,100808.67
2018-01-23T04:52:15.321Z,100810.41
2018-01-23T04:53:21.451Z,100815.12
2018-01-23T04:54:27.568Z,100814.27
2018-01-23T04:55:33.837Z,100819.84
2018-01-23T04:56:40.007Z,100815.12
2018-01-23T04:57:46.159Z,100817.26
2018-01-23T04:58:52.366Z,100814.14
2018-01-23T04:59:58.565Z,100816.73
2018-01-23T05:01:04.761Z,100823.36
2018-01-23T05:02:10.957Z,100816.90
2018-01-23T05:03:17.106Z,100812.02
2018-01-23T05:04:23.244Z,100813.40
2018-01-23T05:05:29.465Z,100821.11
2018-01-23T05:06:35.824Z,100825.39
2018-01-23T05:07:42.113Z,100822.45
2018-01-23T05:08:48.272Z,100825.92
2018-01-23T05:09:54.489Z,100825.59
2018-01-23T05:11:00.664Z,100824.73
2018-01-23T05:12:06.841Z,100827.69
2018-01-23T05:13:13.007Z,100836.78
2018-01-23T05:14:19.417Z,100829.97
2018-01-23T05:15:25.535Z,100833.83
2018-01-23T05:16:31.701Z,100836.31
2018-01-23T05:17:37.895Z,100836.86
2018-01-23T05:18:44.186Z,100834.23
2018-01-23T05:19:51.385Z,100839.42
2018-01-23T05:20:57.544Z,100843.83
2018-01-23T05:22:03.707Z,100840.36
2018-01-23T05:23:09.913Z,100843.28
2018-01-23T05:24:16.129Z,100845.48
2018-01-23T05:25:22.287Z,100854.10
2018-01-23T05:26:28.437Z,100850.17
2018-01-23T05:27:34.688Z,100857.57
2018-01-23T05:28:40.857Z,100854.58
2018-01-23T05:29:47.891Z,100858.00
2018-01-23T05:30:54.061Z,100863.27
2018-01-23T05:32:00.263Z,100861.07
2018-01-23T05:33:06.456Z,100862.38
2018-01-23T05:34:13.971Z,100861.15
2018-01-23T05:35:20.306Z,100862.91
2018-01-23T05:36:26.736Z,100859.38
2018-01-23T05:37:32.887Z,100867.64
2018-01-23T05:38:39.060Z,100871.14
2018-01-23T05:39:44.944Z,100871.50
2018-01-23T05:40:51.059Z,100867.14
2018-01-23T05:41:57.256Z,100870.59
2018-01-23T05:43:03.699Z,100871.90
2018-01-23T05:44:09.866Z,100869.27
2018-01-23T05:45:16.107Z,100875.76
2018-01-23T05:46:22.319Z,100871.86
2018-01-23T05:47:29.357Z,100878.36
2018-01-23T05:48:35.853Z,100877.09
2018-01-23T05:49:42.129Z,100879.66
2018-01-23T05:50:48.278Z,100883.09
2018-01-23T05:51:55.358Z,100882.17
2018-01-23T05:53:01.584Z,100882.11
2018-01-23T05:54:07.725Z,100890.30
2018-01-23T05:55:13.879Z,100896.80
2018-01-23T05:56:20.077Z,100891.98
2018-01-23T05:57:26.413Z,100900.30
2018-01-23T05:58:33.354Z,100899.03
2018-01-23T05:59:39.511Z,100906.00
2018-01-23T06:00:45.707Z,100903.84
2018-01-23T06:01:51.981Z,100912.89
2018-01-23T06:02:58.423Z,100915.89
2018-01-23T06:04:05.238Z,100921.52
2018-01-23T06:05:11.061Z,100914.55
2018-01-23T06:06:17.284Z,100921.02
2018-01-23T06:07:23.872Z,100919.32
2018-01-23T06:08:31.029Z,100921.13
2018-01-23T06:09:37.185Z,100928.49
2018-01-23T06:10:43.421Z,100929.36
2018-01-23T06:11:49.663Z,100927.16
2018-01-23T06:12:55.853Z,100939.35
2018-01-23T06:14:02.049Z,100930.62
2018-01-23T06:15:08.236Z,100940.91
2018-01-23T06:16:14.647Z,100941.02
2018-01-23T06:17:21.051Z,100942.72
2018-01-23T06:18:27.372Z,100947.91
2018-01-23T06:19:33.504Z,100941.77
2018-01-23T06:20:39.678Z,100947.41
2018-01-23T06:21:45.896Z,100951.70
2018-01-23T06:22:52.049Z,100953.91
2018-01-23T06:23:58.188Z,100955.67
2018-01-23T06:25:04.388Z,100954.77
2018-01-23T06:26:10.515Z,100957.37
2018-01-23T06:27:16.713Z,100953.51
2018-01-23T06:28:23.244Z,100958.27
2018-01-23T06:29:29.400Z,100957.41
2018-01-23T06:30:35.570Z,100958.67
2018-01-23T06:31:41.840Z,100962.17
2018-01-23T06:32:48.283Z,100958.31
2018-01-23T06:33:54.247Z,100963.04
2018-01-23T06:35:00.896Z,100965.17
2018-01-23T06:36:07.165Z,100967.80
2018-01-23T06:37:13.311Z,100971.27
2018-01-23T06:38:19.494Z,100973.91
2018-01-23T06:39:25.643Z,100970.38
2018-01-23T06:40:31.902Z,100976.03
2018-01-23T06:41:38.035Z,100976.00
2018-01-23T06:42:44.256Z,100981.63
2018-01-23T06:43:50.425Z,100982.47
2018-01-23T06:44:56.933Z,100982.83
2018-01-23T06:46:03.174Z,100985.42
2018-01-23T06:47:09.358Z,100988.06
2018-01-23T06:48:15.544Z,100989.77
2018-01-23T06:49:21.677Z,100988.46
2018-01-23T06:50:28.101Z,100989.36
2018-01-23T06:51:38.996Z,100992.86
2018-01-23T06:52:45.183Z,100987.62
2018-01-23T06:53:56.369Z,100993.23
2018-01-23T06:55:02.515Z,100995.80
2018-01-23T06:56:08.888Z,101002.00
2018-01-23T06:57:15.290Z,100996.37
2018-01-23T06:58:23.335Z,100998.97
2018-01-23T06:59:29.356Z,101001.12
2018-01-23T07:00:35.533Z,101006.36
2018-01-23T07:01:41.619Z,101008.96
2018-01-23T07:02:47.976Z,101010.66
2018-01-23T07:03:54.953Z,101013.30
2018-01-23T07:05:01.353Z,101008.89
2018-01-23T07:06:07.759Z,101014.96
2018-01-23T07:07:14.221Z,101016.63
2018-01-23T07:08:20.551Z,101012.73
2018-01-23T07:09:27.883Z,101020.99
2018-01-23T07:10:36.340Z,101019.70
2018-01-23T07:11:44.394Z,101018.83
2018-01-23T07:12:51.564Z,101026.23
2018-01-23T07:13:57.868Z,101024.13
2018-01-23T07:15:03.831Z,101029.79
2018-01-23T07:16:10.140Z,101027.19
2018-01-23T07:17:16.419Z,101028.89
2018-01-23T07:18:22.815Z,101032.36
2018-01-23T07:19:29.057Z,101028.86
2018-01-23T07:20:35.492Z,101030.99
2018-01-23T07:21:41.875Z,101030.56
2018-01-23T07:22:47.970Z,101034.03
2018-01-23T07:23:54.169Z,101038.30
2018-01-23T07:25:00.337Z,101039.59
2018-01-23T07:26:06.890Z,101036.09
2018-01-23T07:27:13.278Z,101040.33
2018-01-23T07:28:19.821Z,101039.89
2018-01-23T07:29:26.248Z,101043.36
2018-01-23T07:30:32.857Z,101046.39
2018-01-23T07:31:39.276Z,101051.16
2018-01-23T07:32:45.683Z,101047.70
2018-01-23T07:33:52.008Z,101054.23
2018-01-23T07:35:03.488Z,101056.86
2018-01-23T07:36:09.747Z,101058.66
2018-01-23T07:37:15.994Z,101065.09
2018-01-23T07:38:22.608Z,101064.66
2018-01-23T07:39:28.880Z,101075.90
2018-01-23T07:40:35.599Z,101075.90
2018-01-23T07:41:41.951Z,101081.53
2018-01-23T07:42:48.287Z,101082.38
2018-01-23T07:43:54.983Z,101083.70
2018-01-23T07:45:01.178Z,101084.91
2018-01-23T07:46:07.616Z,101083.17
2018-01-23T07:47:13.829Z,101083.57
2018-01-23T07:48:20.226Z,101088.34
2018-01-23T07:49:27.401Z,101091.41
2018-01-23T07:50:34.172Z,101092.67
2018-01-23T07:51:40.396Z,101084.00
2018-01-23T07:52:46.943Z,101093.94
2018-01-23T07:53:53.135Z,101088.30
2018-01-23T07:55:01.710Z,101096.08
2018-01-23T07:56:08.616Z,101086.53
2018-01-23T07:57:15.960Z,101093.88
2018-01-23T07:58:22.496Z,101096.44
2018-01-23T07:59:30.250Z,101097.77
2018-01-23T08:00:36.582Z,101099.14
2018-01-23T08:01:43.158Z,101097.84
2018-01-23T08:02:54.989Z,101098.27
2018-01-23T08:04:03.584Z,101110.38
2018-01-23T08:05:12.699Z,101106.48
2018-01-23T08:06:20.772Z,101109.48
2018-01-23T08:07:28.837Z,101111.18
2018-01-23T08:08:36.625Z,101108.55
2018-01-23T08:09:42.821Z,101114.11
2018-01-23T08:10:49.091Z,101114.51
2018-01-23T08:11:55.365Z,101115.41
2018-01-23T08:13:02.264Z,101116.75
2018-01-23T08:14:08.645Z,101118.92
2018-01-23T08:15:14.944Z,101118.05
2018-01-23T08:16:22.395Z,101120.62
2018-01-23T08:17:28.865Z,101124.16
2018-01-23T08:18:35.318Z,101120.75
2018-01-23T08:19:42.011Z,101123.29
2018-01-23T08:20:48.644Z,101117.62
2018-01-23T08:21:54.929Z,101122.82
2018-01-23T08:23:01.152Z,101122.86
2018-01-23T08:24:07.695Z,101122.35
2018-01-23T08:25:13.910Z,101130.19
2018-01-23T08:26:20.174Z,101127.63
2018-01-23T08:27:26.351Z,101123.72
2018-01-23T08:28:32.650Z,101125.86
2018-01-23T08:29:39.180Z,101127.09
2018-01-23T08:30:45.529Z,101127.12
2018-01-23T08:31:51.723Z,101122.78
2018-01-23T08:32:57.941Z,101123.19
2018-01-23T08:34:03.410Z,101122.75
2018-01-23T08:35:09.642Z,101121.45
2018-01-23T08:36:15.857Z,101123.66
2018-01-23T08:37:22.213Z,101119.75
2018-01-23T08:38:28.367Z,101119.25
2018-01-23T08:39:34.539Z,101122.72
2018-01-23T08:40:40.728Z,101120.91
2018-01-23T08:41:46.901Z,101124.30
2018-01-23T08:42:53.031Z,101132.08
2018-01-23T08:43:59.257Z,101132.47
2018-01-23T08:45:04.722Z,101131.60
2018-01-23T08:46:16.034Z,101133.02
2018-01-23T08:47:22.409Z,101137.39
2018-01-23T08:48:29.488Z,101135.22
2018-01-23T08:49:35.628Z,101136.48
2018-01-23T08:50:41.815Z,101135.58
2018-01-23T08:51:48.952Z,101136.77
2018-01-23T08:52:59.842Z,101137.05
2018-01-23T08:54:06.490Z,101137.40
2018-01-23T08:55:12.702Z,101135.23
2018-01-23T08:56:19.285Z,101130.84
2018-01-23T08:57:26.027Z,101138.22
2018-01-23T08:58:33.131Z,101133.84
2018-01-23T08:59:40.173Z,101139.88
2018-01-23T09:00:47.028Z,101142.95
2018-01-23T09:01:53.679Z,101141.69
2018-01-23T09:03:00.192Z,101144.73
2018-01-23T09:04:07.591Z,101145.65
2018-01-23T09:05:14.828Z,101146.95
2018-01-23T09:06:21.571Z,101145.22
2018-01-23T09:07:28.250Z,101150.38
2018-01-23T09:08:35.154Z,101152.55
2018-01-23T09:09:41.596Z,101158.14
2018-01-23T09:10:47.840Z,101162.45
2018-01-23T09:11:54.493Z,101166.78
2018-01-23T09:13:00.869Z,101164.50
2018-01-23T09:14:06.720Z,101172.30
2018-01-23T09:15:13.154Z,101168.39
2018-01-23T09:16:19.407Z,101170.00
2018-01-23T09:17:26.568Z,101175.64
2018-01-23T09:18:32.831Z,101168.70
2018-01-23T09:19:39.177Z,101172.14
2018-01-23T09:20:46.173Z,101173.87
2018-01-23T09:21:52.404Z,101177.25
2018-01-23T09:22:58.625Z,101175.17
2018-01-23T09:24:05.223Z,101178.25
2018-01-23T09:25:11.525Z,101183.91
2018-01-23T09:26:17.800Z,101189.63
2018-01-23T09:27:24.076Z,101187.34
2018-01-23T09:28:30.301Z,101192.11
2018-01-23T09:29:36.501Z,101189.07
2018-01-23T09:30:42.790Z,101195.58
2018-01-23T09:31:48.964Z,101193.76
2018-01-23T09:32:55.137Z,101200.72
2018-01-23T09:34:01.293Z,101190.29
2018-01-23T09:35:07.483Z,101192.89
2018-01-23T09:36:13.692Z,101197.19
2018-01-23T09:37:20.115Z,101196.33
2018-01-23T09:38:26.420Z,101199.48
2018-01-23T09:39:32.551Z,101204.22
2018-01-23T09:40:38.823Z,101208.92
2018-01-23T09:41:45.161Z,101207.57
2018-01-23T09:42:53.349Z,101214.05
2018-01-23T09:43:59.855Z,101215.73
2018-01-23T09:45:05.988Z,101215.73
2018-01-23T09:46:15.406Z,101212.34
2018-01-23T09:47:21.816Z,101219.30
2018-01-23T09:48:28.005Z,101217.56
2018-01-23T09:49:34.265Z,101221.00
2018-01-23T09:50:40.444Z,101224.47
2018-01-23T09:51:46.556Z,101223.98
2018-01-23T09:52:53.078Z,101225.20
2018-01-23T09:53:59.738Z,101220.34
2018-01-23T09:55:06.120Z,101225.06
2018-01-23T09:56:12.674Z,101228.05
2018-01-23T09:57:19.372Z,101231.59
2018-01-23T09:58:25.820Z,101234.58
2018-01-23T09:59:32.320Z,101231.53
2018-01-23T10:00:38.644Z,101230.27
2018-01-23T10:01:45.353Z,101233.70
2018-01-23T10:02:52.385Z,101225.75
2018-01-23T10:03:58.929Z,101230.19
2018-01-23T10:05:04.755Z,101227.14
2018-01-23T10:06:11.520Z,101229.27
2018-01-23T10:07:18.096Z,101226.71
2018-01-23T10:08:25.072Z,101224.11
2018-01-23T10:09:31.906Z,101227.11
2018-01-23T10:10:38.436Z,101228.83
2018-01-23T10:11:44.556Z,101231.83
2018-01-23T10:12:51.058Z,101231.84
2018-01-23T10:13:57.523Z,101237.37
2018-01-23T10:15:03.574Z,101235.16
2018-01-23T10:16:09.981Z,101243.13
2018-01-23T10:17:17.201Z,101238.59
2018-01-23T10:18:23.461Z,101242.55
2018-01-23T10:19:30.055Z,101243.75
2018-01-23T10:20:36.982Z,101243.33
2018-01-23T10:21:43.463Z,101241.20
2018-01-23T10:22:49.759Z,101239.03
2018-01-23T10:23:55.993Z,101245.06
2018-01-23T10:25:02.484Z,101245.84
2018-01-23T10:26:09.029Z,101240.90
2018-01-23T10:27:16.370Z,101247.74
2018-01-23T10:28:23.044Z,101250.84
2018-01-23T10:29:29.643Z,101248.67
2018-01-23T10:30:36.167Z,101256.98
2018-01-23T10:31:42.857Z,101249.69
2018-01-23T10:32:49.381Z,101253.12
2018-01-23T10:34:03.579Z,101255.01
2018-01-23T10:35:10.037Z,101253.61
2018-01-23T10:36:16.456Z,101255.78
2018-01-23T10:37:23.112Z,101247.96
2018-01-23T10:38:29.637Z,101247.58
2018-01-23T10:39:39.371Z,101247.52
2018-01-23T10:40:45.640Z,101248.39
2018-01-23T10:41:53.041Z,101251.88
2018-01-23T10:43:00.241Z,101253.94
2018-01-23T10:44:06.685Z,101255.14
2018-01-23T10:45:13.009Z,101255.09
2018-01-23T10:46:19.230Z,101253.40
2018-01-23T10:47:26.423Z,101250.73
2018-01-23T10:48:32.475Z,101252.80
2018-01-23T10:49:38.482Z,101254.16
2018-01-23T10:50:44.799Z,101256.28
2018-01-23T10:51:51.259Z,101250.14
2018-01-23T10:52:57.368Z,101260.14
2018-01-23T10:54:06.113Z,101265.33
2018-01-23T10:55:12.446Z,101262.22
2018-01-23T10:56:18.831Z,101265.20
2018-01-23T10:57:25.058Z,101261.73
2018-01-23T10:58:31.551Z,101258.74
2018-01-23T10:59:37.845Z,101256.12
2018-01-23T11:00:50.663Z,101256.61
2018-01-23T11:01:58.728Z,101256.62
2018-01-23T11:03:04.905Z,101257.86
2018-01-23T11:04:11.450Z,101255.74
2018-01-23T11:05:17.863Z,101260.05
2018-01-23T11:06:23.834Z,101258.68
2018-01-23T11:07:30.040Z,101260.90
2018-01-23T11:08:36.449Z,101257.53
2018-01-23T11:09:42.998Z,101254.48
2018-01-23T11:10:49.462Z,101258.84
2018-01-23T11:11:55.635Z,101258.02
2018-01-23T11:13:02.546Z,101249.70
2018-01-23T11:14:09.425Z,101254.98
2018-01-23T11:15:15.901Z,101256.82
2018-01-23T11:16:22.486Z,101256.40
2018-01-23T11:17:29.227Z,101253.19
2018-01-23T11:18:35.593Z,101261.52
2018-01-23T11:19:42.065Z,101257.98
2018-01-23T11:20:48.849Z,101258.84
2018-01-23T11:21:55.367Z,101256.24
2018-01-23T11:23:02.054Z,101263.19
2018-01-23T11:24:08.465Z,101250.52
2018-01-23T11:25:14.631Z,101252.70
2018-01-23T11:26:21.052Z,101254.00
2018-01-23T11:27:27.839Z,101252.27
2018-01-23T11:28:34.205Z,101254.31
2018-01-23T11:29:45.956Z,101255.58
2018-01-23T11:30:52.397Z,101258.13
2018-01-23T11:31:58.889Z,101257.20
2018-01-23T11:33:05.799Z,101261.06
2018-01-23T11:34:12.467Z,101258.08
2018-01-23T11:35:18.816Z,101254.27
2018-01-23T11:36:27.345Z,101261.61
2018-01-23T11:37:33.740Z,101260.73
2018-01-23T11:38:40.276Z,101262.53
2018-01-23T11:39:46.671Z,101260.84
2018-01-23T11:40:53.140Z,101256.56
2018-01-23T11:41:59.494Z,101254.34
2018-01-23T11:43:05.924Z,101260.91
2018-01-23T11:44:12.366Z,101257.92
2018-01-23T11:45:20.672Z,101264.93
2018-01-23T11:46:27.129Z,101261.83
2018-01-23T11:47:33.299Z,101259.81
2018-01-23T11:48:39.728Z,101264.11
2018-01-23T11:49:46.179Z,101258.90
2018-01-23T11:50:52.505Z,101260.58
2018-01-23T11:51:59.049Z,101258.24
2018-01-23T11:53:05.453Z,101257.75
2018-01-23T11:54:11.780Z,101261.63
2018-01-23T11:55:18.569Z,101256.33
2018-01-23T11:56:25.316Z,101259.39
2018-01-23T11:57:31.896Z,101260.35
2018-01-23T11:58:38.586Z,101263.30
2018-01-23T11:59:44.887Z,101258.89
2018-01-23T12:00:51.241Z,101262.75
2018-01-23T12:01:57.578Z,101252.30
2018-01-23T12:03:04.070Z,101254.91
2018-01-23T12:04:10.495Z,101254.09
2018-01-23T12:05:17.050Z,101253.28
2018-01-23T12:06:23.418Z,101249.87
2018-01-23T12:07:29.607Z,101248.95
2018-01-23T12:08:35.505Z,101252.73
2018-01-23T12:09:41.840Z,101254.16
2018-01-23T12:10:48.462Z,101261.88
2018-01-23T12:11:54.898Z,101257.80
2018-01-23T12:13:01.224Z,101259.04
2018-01-23T12:14:08.245Z,101264.19
2018-01-23T12:15:14.722Z,101260.65
2018-01-23T12:16:21.552Z,101253.48
2018-01-23T12:17:29.331Z,101253.92
2018-01-23T12:18:35.607Z,101254.05
2018-01-23T12:19:41.943Z,101248.75
2018-01-23T12:20:48.477Z,101248.77
2018-01-23T12:21:54.816Z,101246.58
2018-01-23T12:23:01.254Z,101247.94
2018-01-23T12:24:07.553Z,101249.63
2018-01-23T12:25:13.969Z,101242.67
2018-01-23T12:26:20.690Z,101239.12
2018-01-23T12:27:27.842Z,101246.84
2018-01-23T12:28:34.544Z,101245.48
2018-01-23T12:29:40.665Z,101239.70
2018-01-23T12:30:46.788Z,101238.45
2018-01-23T12:31:53.440Z,101241.80
2018-01-23T12:33:00.115Z,101234.92
2018-01-23T12:34:06.392Z,101243.61
2018-01-23T12:35:12.672Z,101241.38
2018-01-23T12:36:19.005Z,101238.95
2018-01-23T12:37:25.598Z,101241.55
2018-01-23T12:38:31.995Z,101238.99
2018-01-23T12:39:38.364Z,101235.84